sensor_id;sensor_type;location;lat;lon;timestamp;P1;durP1;ratioP1;P2;durP2;ratioP2
74180;SDS011;62544;50.826;14.354;2022-09-12T00:03:08;16.52;;;8.59;;
74180;SDS011;62544;50.826;14.354;2022-09-12T00:07:10;17.74;;;8.16;;
74180;SDS011;62544;50.826;14.354;2022-09-12T00:11:12;17.74;;;8.16;;
74180;SDS011;62544;50.826;14.354;2022-09-12T00:15:14;17.74;;;8.16;;
74180;SDS011;62544;50.826;14.354;2022-09-12T00:19:16;14.22;;;7.39;;
74180;SDS011;62544;50.826;14.354;2022-09-12T00:23:18;14.22;;;7.39;;
74180;SDS011;62544;50.826;14.354;2022-09-12T00:27:20;16.11;;;7.71;;
74180;SDS011;62544;50.826;14.354;2022-09-12T00:31:23;16.11;;;7.71;;
74180;SDS011;62544;50.826;14.354;2022-09-12T00:35:24;16.11;;;7.71;;
74180;SDS011;62544;50.826;14.354;2022-09-12T00:39:26;16.49;;;8.72;;
74180;SDS011;62544;50.826;14.354;2022-09-12T00:43:38;16.49;;;8.72;;
74180;SDS011;62544;50.826;14.354;2022-09-12T00:47:30;19.75;;;9.41;;
74180;SDS011;62544;50.826;14.354;2022-09-12T00:51:32;19.75;;;9.41;;
74180;SDS011;62544;50.826;14.354;2022-09-12T00:55:34;23.42;;;10.36;;
74180;SDS011;62544;50.826;14.354;2022-09-12T00:59:39;23.42;;;10.36;;
74180;SDS011;62544;50.826;14.354;2022-09-12T01:03:38;23.42;;;10.36;;
74180;SDS011;62544;50.826;14.354;2022-09-12T01:07:40;18.20;;;9.20;;
74180;SDS011;62544;50.826;14.354;2022-09-12T01:11:42;18.20;;;9.20;;
74180;SDS011;62544;50.826;14.354;2022-09-12T01:15:44;21.32;;;10.63;;
74180;SDS011;62544;50.826;14.354;2022-09-12T01:23:57;21.32;;;10.63;;
74180;SDS011;62544;50.826;14.354;2022-09-12T01:31:54;24.27;;;11.25;;
74180;SDS011;62544;50.826;14.354;2022-09-12T01:39:59;20.00;;;10.21;;
74180;SDS011;62544;50.826;14.354;2022-09-12T01:44:00;20.00;;;10.21;;
74180;SDS011;62544;50.826;14.354;2022-09-12T01:48:07;26.92;;;12.09;;
74180;SDS011;62544;50.826;14.354;2022-09-12T01:52:03;26.92;;;12.09;;
74180;SDS011;62544;50.826;14.354;2022-09-12T01:56:11;21.52;;;10.76;;
74180;SDS011;62544;50.826;14.354;2022-09-12T02:00:08;21.52;;;10.76;;
74180;SDS011;62544;50.826;14.354;2022-09-12T02:08:13;18.01;;;9.56;;
74180;SDS011;62544;50.826;14.354;2022-09-12T02:12:12;18.01;;;9.56;;
74180;SDS011;62544;50.826;14.354;2022-09-12T02:16:18;16.56;;;9.45;;
74180;SDS011;62544;50.826;14.354;2022-09-12T02:20:22;16.56;;;9.45;;
74180;SDS011;62544;50.826;14.354;2022-09-12T02:24:18;16.56;;;9.45;;
74180;SDS011;62544;50.826;14.354;2022-09-12T02:28:26;13.89;;;7.82;;
74180;SDS011;62544;50.826;14.354;2022-09-12T02:32:37;13.89;;;7.82;;
74180;SDS011;62544;50.826;14.354;2022-09-12T02:36:30;20.73;;;10.38;;
74180;SDS011;62544;50.826;14.354;2022-09-12T02:40:26;20.73;;;10.38;;
74180;SDS011;62544;50.826;14.354;2022-09-12T02:44:28;20.73;;;10.38;;
74180;SDS011;62544;50.826;14.354;2022-09-12T02:48:30;21.59;;;11.02;;
74180;SDS011;62544;50.826;14.354;2022-09-12T02:52:31;21.59;;;11.02;;
74180;SDS011;62544;50.826;14.354;2022-09-12T02:56:34;19.76;;;9.90;;
74180;SDS011;62544;50.826;14.354;2022-09-12T03:08:50;20.51;;;9.98;;
74180;SDS011;62544;50.826;14.354;2022-09-12T03:16:46;18.99;;;9.44;;
74180;SDS011;62544;50.826;14.354;2022-09-12T03:20:52;18.99;;;9.44;;
74180;SDS011;62544;50.826;14.354;2022-09-12T03:24:57;18.99;;;9.44;;
74180;SDS011;62544;50.826;14.354;2022-09-12T03:28:49;20.24;;;9.95;;
74180;SDS011;62544;50.826;14.354;2022-09-12T03:32:52;20.24;;;9.95;;
74180;SDS011;62544;50.826;14.354;2022-09-12T03:36:54;17.96;;;8.93;;
74180;SDS011;62544;50.826;14.354;2022-09-12T03:40:55;17.96;;;8.93;;
74180;SDS011;62544;50.826;14.354;2022-09-12T03:44:57;17.96;;;8.93;;
74180;SDS011;62544;50.826;14.354;2022-09-12T03:48:59;19.93;;;9.98;;
74180;SDS011;62544;50.826;14.354;2022-09-12T03:53:02;19.93;;;9.98;;
74180;SDS011;62544;50.826;14.354;2022-09-12T03:57:03;21.09;;;10.12;;
74180;SDS011;62544;50.826;14.354;2022-09-12T04:01:06;21.09;;;10.12;;
74180;SDS011;62544;50.826;14.354;2022-09-12T04:05:07;21.09;;;10.12;;
74180;SDS011;62544;50.826;14.354;2022-09-12T04:09:09;20.79;;;10.07;;
74180;SDS011;62544;50.826;14.354;2022-09-12T04:13:11;20.79;;;10.07;;
74180;SDS011;62544;50.826;14.354;2022-09-12T04:17:13;19.68;;;9.91;;
74180;SDS011;62544;50.826;14.354;2022-09-12T04:21:16;19.68;;;9.91;;
74180;SDS011;62544;50.826;14.354;2022-09-12T04:25:17;19.68;;;9.91;;
74180;SDS011;62544;50.826;14.354;2022-09-12T04:29:19;19.34;;;9.75;;
74180;SDS011;62544;50.826;14.354;2022-09-12T04:33:22;19.34;;;9.75;;
74180;SDS011;62544;50.826;14.354;2022-09-12T04:37:23;26.82;;;11.73;;
74180;SDS011;62544;50.826;14.354;2022-09-12T04:41:27;26.82;;;11.73;;
74180;SDS011;62544;50.826;14.354;2022-09-12T04:45:27;26.82;;;11.73;;
74180;SDS011;62544;50.826;14.354;2022-09-12T04:49:29;29.90;;;12.47;;
74180;SDS011;62544;50.826;14.354;2022-09-12T04:53:31;29.90;;;12.47;;
74180;SDS011;62544;50.826;14.354;2022-09-12T04:57:34;31.66;;;13.10;;
74180;SDS011;62544;50.826;14.354;2022-09-12T05:01:35;31.66;;;13.10;;
74180;SDS011;62544;50.826;14.354;2022-09-12T05:05:37;31.66;;;13.10;;
74180;SDS011;62544;50.826;14.354;2022-09-12T05:09:39;43.90;;;16.18;;
74180;SDS011;62544;50.826;14.354;2022-09-12T05:13:41;43.90;;;16.18;;
74180;SDS011;62544;50.826;14.354;2022-09-12T05:17:43;43.73;;;16.36;;
74180;SDS011;62544;50.826;14.354;2022-09-12T05:21:45;43.73;;;16.36;;
74180;SDS011;62544;50.826;14.354;2022-09-12T05:25:50;37.89;;;15.00;;
74180;SDS011;62544;50.826;14.354;2022-09-12T05:29:49;37.89;;;15.00;;
74180;SDS011;62544;50.826;14.354;2022-09-12T05:33:52;37.89;;;15.00;;
74180;SDS011;62544;50.826;14.354;2022-09-12T05:37:53;39.72;;;15.78;;
74180;SDS011;62544;50.826;14.354;2022-09-12T05:41:55;39.72;;;15.78;;
74180;SDS011;62544;50.826;14.354;2022-09-12T05:46:01;36.77;;;15.42;;
74180;SDS011;62544;50.826;14.354;2022-09-12T05:49:59;36.77;;;15.42;;
74180;SDS011;62544;50.826;14.354;2022-09-12T05:54:02;36.77;;;15.42;;
74180;SDS011;62544;50.826;14.354;2022-09-12T05:58:03;24.78;;;13.40;;
74180;SDS011;62544;50.826;14.354;2022-09-12T06:02:05;24.78;;;13.40;;
74180;SDS011;62544;50.826;14.354;2022-09-12T06:06:07;20.20;;;12.47;;
74180;SDS011;62544;50.826;14.354;2022-09-12T06:10:09;20.20;;;12.47;;
74180;SDS011;62544;50.826;14.354;2022-09-12T06:14:13;20.20;;;12.47;;
74180;SDS011;62544;50.826;14.354;2022-09-12T06:18:13;16.31;;;10.41;;
74180;SDS011;62544;50.826;14.354;2022-09-12T06:22:15;16.31;;;10.41;;
74180;SDS011;62544;50.826;14.354;2022-09-12T06:26:17;15.13;;;10.30;;
74180;SDS011;62544;50.826;14.354;2022-09-12T06:30:19;15.13;;;10.30;;
74180;SDS011;62544;50.826;14.354;2022-09-12T06:34:21;15.13;;;10.30;;
74180;SDS011;62544;50.826;14.354;2022-09-12T06:38:23;21.91;;;14.67;;
74180;SDS011;62544;50.826;14.354;2022-09-12T06:42:25;21.91;;;14.67;;
74180;SDS011;62544;50.826;14.354;2022-09-12T06:46:27;14.47;;;10.21;;
74180;SDS011;62544;50.826;14.354;2022-09-12T06:50:29;14.47;;;10.21;;
74180;SDS011;62544;50.826;14.354;2022-09-12T06:54:31;14.47;;;10.21;;
74180;SDS011;62544;50.826;14.354;2022-09-12T06:58:33;15.89;;;11.07;;
74180;SDS011;62544;50.826;14.354;2022-09-12T07:02:35;15.89;;;11.07;;
74180;SDS011;62544;50.826;14.354;2022-09-12T07:06:38;15.99;;;10.66;;
74180;SDS011;62544;50.826;14.354;2022-09-12T07:10:39;15.99;;;10.66;;
74180;SDS011;62544;50.826;14.354;2022-09-12T07:14:41;15.99;;;10.66;;
74180;SDS011;62544;50.826;14.354;2022-09-12T07:18:43;14.40;;;9.96;;
74180;SDS011;62544;50.826;14.354;2022-09-12T07:22:45;14.40;;;9.96;;
74180;SDS011;62544;50.826;14.354;2022-09-12T07:26:47;13.92;;;10.12;;
74180;SDS011;62544;50.826;14.354;2022-09-12T07:30:49;13.92;;;10.12;;
74180;SDS011;62544;50.826;14.354;2022-09-12T07:34:51;13.92;;;10.12;;
74180;SDS011;62544;50.826;14.354;2022-09-12T07:38:54;14.76;;;10.50;;
74180;SDS011;62544;50.826;14.354;2022-09-12T07:42:55;14.76;;;10.50;;
74180;SDS011;62544;50.826;14.354;2022-09-12T07:46:57;17.42;;;11.68;;
74180;SDS011;62544;50.826;14.354;2022-09-12T07:51:00;17.42;;;11.68;;
74180;SDS011;62544;50.826;14.354;2022-09-12T07:55:01;17.42;;;11.68;;
74180;SDS011;62544;50.826;14.354;2022-09-12T07:59:03;14.75;;;10.37;;
74180;SDS011;62544;50.826;14.354;2022-09-12T08:03:05;14.75;;;10.37;;
74180;SDS011;62544;50.826;14.354;2022-09-12T08:07:07;12.96;;;8.71;;
74180;SDS011;62544;50.826;14.354;2022-09-12T08:11:10;12.96;;;8.71;;
74180;SDS011;62544;50.826;14.354;2022-09-12T08:15:11;12.96;;;8.71;;
74180;SDS011;62544;50.826;14.354;2022-09-12T08:19:13;10.83;;;9.12;;
74180;SDS011;62544;50.826;14.354;2022-09-12T08:23:15;10.83;;;9.12;;
74180;SDS011;62544;50.826;14.354;2022-09-12T08:27:17;11.45;;;9.41;;
74180;SDS011;62544;50.826;14.354;2022-09-12T08:31:20;11.45;;;9.41;;
74180;SDS011;62544;50.826;14.354;2022-09-12T08:35:21;11.45;;;9.41;;
74180;SDS011;62544;50.826;14.354;2022-09-12T08:39:23;10.95;;;9.25;;
74180;SDS011;62544;50.826;14.354;2022-09-12T08:43:32;10.95;;;9.25;;
74180;SDS011;62544;50.826;14.354;2022-09-12T08:47:27;13.14;;;10.13;;
74180;SDS011;62544;50.826;14.354;2022-09-12T08:51:30;13.14;;;10.13;;
74180;SDS011;62544;50.826;14.354;2022-09-12T08:55:35;13.14;;;10.13;;
74180;SDS011;62544;50.826;14.354;2022-09-12T08:59:37;9.99;;;8.53;;
74180;SDS011;62544;50.826;14.354;2022-09-12T09:07:43;7.40;;;6.57;;
74180;SDS011;62544;50.826;14.354;2022-09-12T09:11:53;7.40;;;6.57;;
74180;SDS011;62544;50.826;14.354;2022-09-12T09:19:45;9.52;;;6.56;;
74180;SDS011;62544;50.826;14.354;2022-09-12T09:23:47;9.52;;;6.56;;
74180;SDS011;62544;50.826;14.354;2022-09-12T09:27:52;11.35;;;9.27;;
74180;SDS011;62544;50.826;14.354;2022-09-12T09:31:53;11.35;;;9.27;;
74180;SDS011;62544;50.826;14.354;2022-09-12T09:40:11;8.41;;;6.51;;
74180;SDS011;62544;50.826;14.354;2022-09-12T09:43:56;8.41;;;6.51;;
74180;SDS011;62544;50.826;14.354;2022-09-12T09:48:03;5.83;;;4.38;;
74180;SDS011;62544;50.826;14.354;2022-09-12T09:51:59;5.83;;;4.38;;
74180;SDS011;62544;50.826;14.354;2022-09-12T09:56:03;6.22;;;4.05;;
74180;SDS011;62544;50.826;14.354;2022-09-12T10:00:19;6.22;;;4.05;;
74180;SDS011;62544;50.826;14.354;2022-09-12T10:04:08;6.22;;;4.05;;
74180;SDS011;62544;50.826;14.354;2022-09-12T10:08:07;5.77;;;3.41;;
74180;SDS011;62544;50.826;14.354;2022-09-12T10:12:18;5.77;;;3.41;;
74180;SDS011;62544;50.826;14.354;2022-09-12T10:16:22;3.23;;;2.94;;
74180;SDS011;62544;50.826;14.354;2022-09-12T10:24:19;3.23;;;2.94;;
74180;SDS011;62544;50.826;14.354;2022-09-12T10:28:36;3.03;;;2.27;;
74180;SDS011;62544;50.826;14.354;2022-09-12T10:36:21;3.26;;;2.98;;
74180;SDS011;62544;50.826;14.354;2022-09-12T10:40:27;3.26;;;2.98;;
74180;SDS011;62544;50.826;14.354;2022-09-12T10:44:26;3.26;;;2.98;;
74180;SDS011;62544;50.826;14.354;2022-09-12T10:48:31;2.81;;;2.34;;
74180;SDS011;62544;50.826;14.354;2022-09-12T10:52:29;2.81;;;2.34;;
74180;SDS011;62544;50.826;14.354;2022-09-12T10:56:32;3.43;;;2.86;;
74180;SDS011;62544;50.826;14.354;2022-09-12T11:00:34;3.43;;;2.86;;
74180;SDS011;62544;50.826;14.354;2022-09-12T11:16:43;4.42;;;2.06;;
74180;SDS011;62544;50.826;14.354;2022-09-12T11:21:04;4.42;;;2.06;;
74180;SDS011;62544;50.826;14.354;2022-09-12T11:32:53;3.23;;;1.66;;
74180;SDS011;62544;50.826;14.354;2022-09-12T11:40:55;1.27;;;0.98;;
74180;SDS011;62544;50.826;14.354;2022-09-12T11:44:59;1.27;;;0.98;;
74180;SDS011;62544;50.826;14.354;2022-09-12T11:49:16;3.25;;;1.77;;
74180;SDS011;62544;50.826;14.354;2022-09-12T11:53:18;3.25;;;1.77;;
74180;SDS011;62544;50.826;14.354;2022-09-12T11:57:17;3.76;;;1.78;;
74180;SDS011;62544;50.826;14.354;2022-09-12T12:01:14;3.76;;;1.78;;
74180;SDS011;62544;50.826;14.354;2022-09-12T12:05:15;3.76;;;1.78;;
74180;SDS011;62544;50.826;14.354;2022-09-12T12:09:09;3.79;;;2.39;;
74180;SDS011;62544;50.826;14.354;2022-09-12T12:13:16;3.79;;;2.39;;
74180;SDS011;62544;50.826;14.354;2022-09-12T12:17:12;1.39;;;0.99;;
74180;SDS011;62544;50.826;14.354;2022-09-12T12:21:34;1.39;;;0.99;;
74180;SDS011;62544;50.826;14.354;2022-09-12T12:49:28;2.08;;;1.29;;
74180;SDS011;62544;50.826;14.354;2022-09-12T12:53:30;2.08;;;1.29;;
74180;SDS011;62544;50.826;14.354;2022-09-12T13:01:34;11.15;;;6.87;;
74180;SDS011;62544;50.826;14.354;2022-09-12T13:05:42;11.15;;;6.87;;
74180;SDS011;62544;50.826;14.354;2022-09-12T13:09:42;0.70;;;0.60;;
74180;SDS011;62544;50.826;14.354;2022-09-12T13:13:42;0.70;;;0.60;;
74180;SDS011;62544;50.826;14.354;2022-09-12T13:17:42;2.08;;;0.89;;
74180;SDS011;62544;50.826;14.354;2022-09-12T13:21:56;2.08;;;0.89;;
74180;SDS011;62544;50.826;14.354;2022-09-12T13:25:50;2.08;;;0.89;;
74180;SDS011;62544;50.826;14.354;2022-09-12T13:29:48;1.40;;;0.60;;
74180;SDS011;62544;50.826;14.354;2022-09-12T13:33:56;1.40;;;0.60;;
74180;SDS011;62544;50.826;14.354;2022-09-12T13:38:04;2.79;;;0.90;;
74180;SDS011;62544;50.826;14.354;2022-09-12T13:42:19;2.79;;;0.90;;
74180;SDS011;62544;50.826;14.354;2022-09-12T13:45:56;0.89;;;0.59;;
74180;SDS011;62544;50.826;14.354;2022-09-12T13:49:58;0.89;;;0.59;;
74180;SDS011;62544;50.826;14.354;2022-09-12T13:54:01;0.89;;;0.59;;
74180;SDS011;62544;50.826;14.354;2022-09-12T13:58:03;1.49;;;0.60;;
74180;SDS011;62544;50.826;14.354;2022-09-12T14:02:19;1.49;;;0.60;;
74180;SDS011;62544;50.826;14.354;2022-09-12T14:06:06;1.20;;;0.70;;
74180;SDS011;62544;50.826;14.354;2022-09-12T14:10:12;1.20;;;0.70;;
74180;SDS011;62544;50.826;14.354;2022-09-12T14:14:16;1.20;;;0.70;;
74180;SDS011;62544;50.826;14.354;2022-09-12T14:22:14;2.59;;;0.70;;
74180;SDS011;62544;50.826;14.354;2022-09-12T14:26:16;1.00;;;0.70;;
74180;SDS011;62544;50.826;14.354;2022-09-12T14:30:24;1.00;;;0.70;;
74180;SDS011;62544;50.826;14.354;2022-09-12T14:34:20;1.00;;;0.70;;
74180;SDS011;62544;50.826;14.354;2022-09-12T14:38:23;2.10;;;0.60;;
74180;SDS011;62544;50.826;14.354;2022-09-12T14:42:25;2.10;;;0.60;;
74180;SDS011;62544;50.826;14.354;2022-09-12T14:46:35;0.90;;;0.80;;
74180;SDS011;62544;50.826;14.354;2022-09-12T14:50:28;0.90;;;0.80;;
74180;SDS011;62544;50.826;14.354;2022-09-12T14:54:33;0.90;;;0.80;;
74180;SDS011;62544;50.826;14.354;2022-09-12T14:58:31;1.20;;;0.60;;
74180;SDS011;62544;50.826;14.354;2022-09-12T15:02:33;1.20;;;0.60;;
74180;SDS011;62544;50.826;14.354;2022-09-12T15:06:36;1.60;;;0.80;;
74180;SDS011;62544;50.826;14.354;2022-09-12T15:10:38;1.60;;;0.80;;
74180;SDS011;62544;50.826;14.354;2022-09-12T15:14:39;1.60;;;0.80;;
74180;SDS011;62544;50.826;14.354;2022-09-12T15:18:41;1.79;;;0.79;;
74180;SDS011;62544;50.826;14.354;2022-09-12T15:22:44;1.79;;;0.79;;
74180;SDS011;62544;50.826;14.354;2022-09-12T15:26:46;2.93;;;1.27;;
74180;SDS011;62544;50.826;14.354;2022-09-12T15:30:48;2.93;;;1.27;;
74180;SDS011;62544;50.826;14.354;2022-09-12T15:34:49;2.93;;;1.27;;
74180;SDS011;62544;50.826;14.354;2022-09-12T15:38:52;2.44;;;1.37;;
74180;SDS011;62544;50.826;14.354;2022-09-12T15:42:54;2.44;;;1.37;;
74180;SDS011;62544;50.826;14.354;2022-09-12T15:46:56;1.92;;;0.86;;
74180;SDS011;62544;50.826;14.354;2022-09-12T15:50:58;1.92;;;0.86;;
74180;SDS011;62544;50.826;14.354;2022-09-12T15:55:00;1.92;;;0.86;;
74180;SDS011;62544;50.826;14.354;2022-09-12T15:59:02;2.43;;;1.03;;
74180;SDS011;62544;50.826;14.354;2022-09-12T16:03:04;2.43;;;1.03;;
74180;SDS011;62544;50.826;14.354;2022-09-12T16:07:06;0.91;;;0.82;;
74180;SDS011;62544;50.826;14.354;2022-09-12T16:11:12;0.91;;;0.82;;
74180;SDS011;62544;50.826;14.354;2022-09-12T16:15:13;0.91;;;0.82;;
74180;SDS011;62544;50.826;14.354;2022-09-12T16:19:12;3.01;;;1.33;;
74180;SDS011;62544;50.826;14.354;2022-09-12T16:23:14;3.01;;;1.33;;
74180;SDS011;62544;50.826;14.354;2022-09-12T16:27:16;1.24;;;0.89;;
74180;SDS011;62544;50.826;14.354;2022-09-12T16:31:18;1.24;;;0.89;;
74180;SDS011;62544;50.826;14.354;2022-09-12T16:35:20;1.24;;;0.89;;
74180;SDS011;62544;50.826;14.354;2022-09-12T16:39:22;1.52;;;0.93;;
74180;SDS011;62544;50.826;14.354;2022-09-12T16:43:23;1.52;;;0.93;;
74180;SDS011;62544;50.826;14.354;2022-09-12T16:47:26;2.84;;;0.89;;
74180;SDS011;62544;50.826;14.354;2022-09-12T16:51:31;2.84;;;0.89;;
74180;SDS011;62544;50.826;14.354;2022-09-12T16:55:29;2.84;;;0.89;;
74180;SDS011;62544;50.826;14.354;2022-09-12T16:59:31;1.81;;;0.79;;
74180;SDS011;62544;50.826;14.354;2022-09-12T17:03:34;1.81;;;0.79;;
74180;SDS011;62544;50.826;14.354;2022-09-12T17:07:36;3.52;;;1.12;;
74180;SDS011;62544;50.826;14.354;2022-09-12T17:11:38;3.52;;;1.12;;
74180;SDS011;62544;50.826;14.354;2022-09-12T17:15:39;3.52;;;1.12;;
74180;SDS011;62544;50.826;14.354;2022-09-12T17:19:42;1.34;;;0.78;;
74180;SDS011;62544;50.826;14.354;2022-09-12T17:23:44;1.34;;;0.78;;
74180;SDS011;62544;50.826;14.354;2022-09-12T17:27:45;2.13;;;0.87;;
74180;SDS011;62544;50.826;14.354;2022-09-12T17:31:47;2.13;;;0.87;;
74180;SDS011;62544;50.826;14.354;2022-09-12T17:35:50;2.13;;;0.87;;
74180;SDS011;62544;50.826;14.354;2022-09-12T17:39:51;2.09;;;1.04;;
74180;SDS011;62544;50.826;14.354;2022-09-12T17:43:54;2.09;;;1.04;;
74180;SDS011;62544;50.826;14.354;2022-09-12T17:47:55;1.49;;;0.99;;
74180;SDS011;62544;50.826;14.354;2022-09-12T17:51:57;1.49;;;0.99;;
74180;SDS011;62544;50.826;14.354;2022-09-12T17:56:00;0.96;;;0.90;;
74180;SDS011;62544;50.826;14.354;2022-09-12T18:00:02;0.96;;;0.90;;
74180;SDS011;62544;50.826;14.354;2022-09-12T18:04:03;0.96;;;0.90;;
74180;SDS011;62544;50.826;14.354;2022-09-12T18:08:05;2.28;;;1.20;;
74180;SDS011;62544;50.826;14.354;2022-09-12T18:12:07;2.28;;;1.20;;
74180;SDS011;62544;50.826;14.354;2022-09-12T18:16:10;2.09;;;1.26;;
74180;SDS011;62544;50.826;14.354;2022-09-12T18:20:12;2.09;;;1.26;;
74180;SDS011;62544;50.826;14.354;2022-09-12T18:24:14;2.09;;;1.26;;
74180;SDS011;62544;50.826;14.354;2022-09-12T18:28:15;1.59;;;1.20;;
74180;SDS011;62544;50.826;14.354;2022-09-12T18:32:17;1.59;;;1.20;;
74180;SDS011;62544;50.826;14.354;2022-09-12T18:36:20;1.37;;;1.21;;
74180;SDS011;62544;50.826;14.354;2022-09-12T18:40:21;1.37;;;1.21;;
74180;SDS011;62544;50.826;14.354;2022-09-12T18:44:23;1.37;;;1.21;;
74180;SDS011;62544;50.826;14.354;2022-09-12T18:48:25;1.25;;;1.15;;
74180;SDS011;62544;50.826;14.354;2022-09-12T18:52:28;1.25;;;1.15;;
74180;SDS011;62544;50.826;14.354;2022-09-12T18:56:30;1.29;;;1.10;;
74180;SDS011;62544;50.826;14.354;2022-09-12T19:00:31;1.29;;;1.10;;
74180;SDS011;62544;50.826;14.354;2022-09-12T19:04:34;1.29;;;1.10;;
74180;SDS011;62544;50.826;14.354;2022-09-12T19:08:36;1.92;;;1.25;;
74180;SDS011;62544;50.826;14.354;2022-09-12T19:12:37;1.92;;;1.25;;
74180;SDS011;62544;50.826;14.354;2022-09-12T19:16:39;3.54;;;2.22;;
74180;SDS011;62544;50.826;14.354;2022-09-12T19:20:42;3.54;;;2.22;;
74180;SDS011;62544;50.826;14.354;2022-09-12T19:24:43;3.54;;;2.22;;
74180;SDS011;62544;50.826;14.354;2022-09-12T19:28:46;2.53;;;1.48;;
74180;SDS011;62544;50.826;14.354;2022-09-12T19:32:47;2.53;;;1.48;;
74180;SDS011;62544;50.826;14.354;2022-09-12T19:36:49;2.23;;;1.56;;
74180;SDS011;62544;50.826;14.354;2022-09-12T19:40:55;2.23;;;1.56;;
74180;SDS011;62544;50.826;14.354;2022-09-12T19:44:53;2.23;;;1.56;;
74180;SDS011;62544;50.826;14.354;2022-09-12T19:48:55;1.96;;;1.78;;
74180;SDS011;62544;50.826;14.354;2022-09-12T19:52:57;1.96;;;1.78;;
74180;SDS011;62544;50.826;14.354;2022-09-12T19:56:59;1.86;;;1.69;;
74180;SDS011;62544;50.826;14.354;2022-09-12T20:01:08;1.86;;;1.69;;
74180;SDS011;62544;50.826;14.354;2022-09-12T20:05:03;1.86;;;1.69;;
74180;SDS011;62544;50.826;14.354;2022-09-12T20:09:05;2.90;;;2.29;;
74180;SDS011;62544;50.826;14.354;2022-09-12T20:13:07;2.90;;;2.29;;
74180;SDS011;62544;50.826;14.354;2022-09-12T20:17:09;2.88;;;2.58;;
74180;SDS011;62544;50.826;14.354;2022-09-12T20:21:15;2.88;;;2.58;;
74180;SDS011;62544;50.826;14.354;2022-09-12T20:25:13;2.88;;;2.58;;
74180;SDS011;62544;50.826;14.354;2022-09-12T20:29:15;3.04;;;2.38;;
74180;SDS011;62544;50.826;14.354;2022-09-12T20:33:17;3.04;;;2.38;;
74180;SDS011;62544;50.826;14.354;2022-09-12T20:37:19;2.92;;;2.58;;
74180;SDS011;62544;50.826;14.354;2022-09-12T20:41:21;2.92;;;2.58;;
74180;SDS011;62544;50.826;14.354;2022-09-12T20:45:23;2.92;;;2.58;;
74180;SDS011;62544;50.826;14.354;2022-09-12T20:49:25;2.94;;;2.66;;
74180;SDS011;62544;50.826;14.354;2022-09-12T20:53:28;2.94;;;2.66;;
74180;SDS011;62544;50.826;14.354;2022-09-12T20:57:29;3.74;;;2.77;;
74180;SDS011;62544;50.826;14.354;2022-09-12T21:01:31;3.74;;;2.77;;
74180;SDS011;62544;50.826;14.354;2022-09-12T21:05:33;3.74;;;2.77;;
74180;SDS011;62544;50.826;14.354;2022-09-12T21:09:35;2.79;;;2.51;;
74180;SDS011;62544;50.826;14.354;2022-09-12T21:13:37;2.79;;;2.51;;
74180;SDS011;62544;50.826;14.354;2022-09-12T21:17:39;3.67;;;2.96;;
74180;SDS011;62544;50.826;14.354;2022-09-12T21:21:41;3.67;;;2.96;;
74180;SDS011;62544;50.826;14.354;2022-09-12T21:25:43;3.67;;;2.96;;
74180;SDS011;62544;50.826;14.354;2022-09-12T21:29:45;5.44;;;3.86;;
74180;SDS011;62544;50.826;14.354;2022-09-12T21:33:47;5.44;;;3.86;;
74180;SDS011;62544;50.826;14.354;2022-09-12T21:37:52;4.29;;;3.35;;
74180;SDS011;62544;50.826;14.354;2022-09-12T21:41:51;4.29;;;3.35;;
74180;SDS011;62544;50.826;14.354;2022-09-12T21:45:57;4.29;;;3.35;;
74180;SDS011;62544;50.826;14.354;2022-09-12T21:49:55;4.47;;;3.44;;
74180;SDS011;62544;50.826;14.354;2022-09-12T21:53:57;4.47;;;3.44;;
74180;SDS011;62544;50.826;14.354;2022-09-12T21:57:59;4.41;;;3.64;;
74180;SDS011;62544;50.826;14.354;2022-09-12T22:02:01;4.41;;;3.64;;
74180;SDS011;62544;50.826;14.354;2022-09-12T22:06:04;6.07;;;4.04;;
74180;SDS011;62544;50.826;14.354;2022-09-12T22:10:05;6.07;;;4.04;;
74180;SDS011;62544;50.826;14.354;2022-09-12T22:14:07;6.07;;;4.04;;
74180;SDS011;62544;50.826;14.354;2022-09-12T22:18:09;3.56;;;3.20;;
74180;SDS011;62544;50.826;14.354;2022-09-12T22:22:11;3.56;;;3.20;;
74180;SDS011;62544;50.826;14.354;2022-09-12T22:26:13;4.39;;;3.69;;
74180;SDS011;62544;50.826;14.354;2022-09-12T22:30:15;4.39;;;3.69;;
74180;SDS011;62544;50.826;14.354;2022-09-12T22:34:17;4.39;;;3.69;;
74180;SDS011;62544;50.826;14.354;2022-09-12T22:38:19;3.55;;;3.18;;
74180;SDS011;62544;50.826;14.354;2022-09-12T22:42:21;3.55;;;3.18;;
74180;SDS011;62544;50.826;14.354;2022-09-12T22:46:23;4.44;;;3.87;;
74180;SDS011;62544;50.826;14.354;2022-09-12T22:50:25;4.44;;;3.87;;
74180;SDS011;62544;50.826;14.354;2022-09-12T22:54:27;4.44;;;3.87;;
74180;SDS011;62544;50.826;14.354;2022-09-12T22:58:29;3.39;;;3.05;;
74180;SDS011;62544;50.826;14.354;2022-09-12T23:02:31;3.39;;;3.05;;
74180;SDS011;62544;50.826;14.354;2022-09-12T23:06:33;4.06;;;3.49;;
74180;SDS011;62544;50.826;14.354;2022-09-12T23:10:35;4.06;;;3.49;;
74180;SDS011;62544;50.826;14.354;2022-09-12T23:14:37;4.06;;;3.49;;
74180;SDS011;62544;50.826;14.354;2022-09-12T23:18:39;7.03;;;4.16;;
74180;SDS011;62544;50.826;14.354;2022-09-12T23:22:41;7.03;;;4.16;;
74180;SDS011;62544;50.826;14.354;2022-09-12T23:26:43;4.48;;;3.54;;
74180;SDS011;62544;50.826;14.354;2022-09-12T23:30:45;4.48;;;3.54;;
74180;SDS011;62544;50.826;14.354;2022-09-12T23:34:47;4.48;;;3.54;;
74180;SDS011;62544;50.826;14.354;2022-09-12T23:38:49;3.78;;;3.41;;
74180;SDS011;62544;50.826;14.354;2022-09-12T23:42:51;3.78;;;3.41;;
74180;SDS011;62544;50.826;14.354;2022-09-12T23:46:53;3.25;;;2.67;;
74180;SDS011;62544;50.826;14.354;2022-09-12T23:50:55;3.25;;;2.67;;
74180;SDS011;62544;50.826;14.354;2022-09-12T23:54:57;3.25;;;2.67;;
74180;SDS011;62544;50.826;14.354;2022-09-12T23:58:59;4.20;;;3.55;;
